sensor_id;sensor_type;location;lat;lon;timestamp;pressure;altitude;pressure_sealevel;temperature;humidity
82148;BME280;71718;50.480;12.110;2024-01-25T00:00:54;98348.56;;;5.43;69.83
82148;BME280;71718;50.480;12.110;2024-01-25T00:03:21;98348.09;;;5.39;68.12
82148;BME280;71718;50.480;12.110;2024-01-25T00:05:47;98353.84;;;5.33;64.04
82148;BME280;71718;50.480;12.110;2024-01-25T00:08:15;98343.09;;;5.38;67.44
82148;BME280;71718;50.480;12.110;2024-01-25T00:10:41;98344.09;;;5.45;62.15
82148;BME280;71718;50.480;12.110;2024-01-25T00:13:07;98344.44;;;5.50;62.28
82148;BME280;71718;50.480;12.110;2024-01-25T00:15:34;98351.19;;;5.51;66.24
82148;BME280;71718;50.480;12.110;2024-01-25T00:18:00;98353.16;;;5.57;62.02
82148;BME280;71718;50.480;12.110;2024-01-25T00:20:27;98357.50;;;5.65;66.13
82148;BME280;71718;50.480;12.110;2024-01-25T00:22:53;98349.94;;;5.63;65.87
82148;BME280;71718;50.480;12.110;2024-01-25T00:25:20;98350.44;;;5.67;66.14
82148;BME280;71718;50.480;12.110;2024-01-25T00:27:46;98348.34;;;5.70;67.95
82148;BME280;71718;50.480;12.110;2024-01-25T00:30:13;98350.25;;;5.68;66.18
82148;BME280;71718;50.480;12.110;2024-01-25T00:32:39;98342.53;;;5.68;66.75
82148;BME280;71718;50.480;12.110;2024-01-25T00:35:07;98336.22;;;5.63;68.11
82148;BME280;71718;50.480;12.110;2024-01-25T00:37:34;98333.84;;;5.61;68.47
82148;BME280;71718;50.480;12.110;2024-01-25T00:40:00;98337.38;;;5.60;66.31
82148;BME280;71718;50.480;12.110;2024-01-25T00:42:28;98330.41;;;5.53;68.49
82148;BME280;71718;50.480;12.110;2024-01-25T00:44:55;98338.13;;;5.53;65.08
82148;BME280;71718;50.480;12.110;2024-01-25T00:47:22;98334.31;;;5.57;65.76
82148;BME280;71718;50.480;12.110;2024-01-25T00:49:48;98332.19;;;5.52;68.52
82148;BME280;71718;50.480;12.110;2024-01-25T00:52:15;98337.50;;;5.51;69.07
82148;BME280;71718;50.480;12.110;2024-01-25T00:54:42;98339.28;;;5.50;68.50
82148;BME280;71718;50.480;12.110;2024-01-25T00:57:10;98335.41;;;5.46;68.04
82148;BME280;71718;50.480;12.110;2024-01-25T00:59:36;98333.31;;;5.49;69.00
82148;BME280;71718;50.480;12.110;2024-01-25T01:02:04;98329.13;;;5.48;69.58
82148;BME280;71718;50.480;12.110;2024-01-25T01:04:34;98333.78;;;5.53;69.45
82148;BME280;71718;50.480;12.110;2024-01-25T01:07:14;98332.81;;;5.46;67.88
82148;BME280;71718;50.480;12.110;2024-01-25T01:09:41;98327.34;;;5.41;69.23
82148;BME280;71718;50.480;12.110;2024-01-25T01:12:07;98329.56;;;5.36;68.72
82148;BME280;71718;50.480;12.110;2024-01-25T01:14:34;98334.06;;;5.42;69.04
82148;BME280;71718;50.480;12.110;2024-01-25T01:17:00;98337.13;;;5.37;68.46
82148;BME280;71718;50.480;12.110;2024-01-25T01:19:26;98333.41;;;5.32;69.21
82148;BME280;71718;50.480;12.110;2024-01-25T01:21:53;98329.22;;;5.31;69.03
82148;BME280;71718;50.480;12.110;2024-01-25T01:24:19;98331.00;;;5.30;69.12
82148;BME280;71718;50.480;12.110;2024-01-25T01:26:46;98335.16;;;5.31;69.19
82148;BME280;71718;50.480;12.110;2024-01-25T01:29:12;98332.75;;;5.30;68.27
82148;BME280;71718;50.480;12.110;2024-01-25T01:31:39;98322.94;;;5.33;62.15
82148;BME280;71718;50.480;12.110;2024-01-25T01:34:05;98327.16;;;5.42;67.32
82148;BME280;71718;50.480;12.110;2024-01-25T01:36:32;98322.81;;;5.43;67.19
82148;BME280;71718;50.480;12.110;2024-01-25T01:38:58;98324.44;;;5.44;68.39
82148;BME280;71718;50.480;12.110;2024-01-25T01:41:25;98325.25;;;5.44;68.21
82148;BME280;71718;50.480;12.110;2024-01-25T01:43:52;98326.19;;;5.43;67.57
82148;BME280;71718;50.480;12.110;2024-01-25T01:46:35;98328.63;;;5.45;69.28
82148;BME280;71718;50.480;12.110;2024-01-25T01:49:02;98317.84;;;5.41;69.15
82148;BME280;71718;50.480;12.110;2024-01-25T01:51:32;98329.41;;;5.37;69.54
82148;BME280;71718;50.480;12.110;2024-01-25T01:54:01;98318.28;;;5.37;69.66
82148;BME280;71718;50.480;12.110;2024-01-25T01:56:28;98315.56;;;5.30;69.92
82148;BME280;71718;50.480;12.110;2024-01-25T01:58:59;98324.88;;;5.31;69.44
82148;BME280;71718;50.480;12.110;2024-01-25T02:01:26;98320.53;;;5.32;68.61
82148;BME280;71718;50.480;12.110;2024-01-25T02:03:53;98320.84;;;5.29;69.16
82148;BME280;71718;50.480;12.110;2024-01-25T02:06:20;98322.28;;;5.31;68.82
82148;BME280;71718;50.480;12.110;2024-01-25T02:08:47;98320.69;;;5.30;68.82
82148;BME280;71718;50.480;12.110;2024-01-25T02:11:14;98326.13;;;5.27;69.39
82148;BME280;71718;50.480;12.110;2024-01-25T02:13:40;98326.94;;;5.28;68.68
82148;BME280;71718;50.480;12.110;2024-01-25T02:16:07;98330.47;;;5.27;69.84
82148;BME280;71718;50.480;12.110;2024-01-25T02:18:34;98327.91;;;5.27;69.02
82148;BME280;71718;50.480;12.110;2024-01-25T02:21:01;98338.06;;;5.28;68.30
82148;BME280;71718;50.480;12.110;2024-01-25T02:23:28;98334.81;;;5.26;69.64
82148;BME280;71718;50.480;12.110;2024-01-25T02:25:54;98344.34;;;5.26;67.49
82148;BME280;71718;50.480;12.110;2024-01-25T02:28:21;98348.50;;;5.27;68.89
82148;BME280;71718;50.480;12.110;2024-01-25T02:30:47;98354.66;;;5.34;69.23
82148;BME280;71718;50.480;12.110;2024-01-25T02:33:14;98373.69;;;5.41;66.46
82148;BME280;71718;50.480;12.110;2024-01-25T02:35:40;98361.31;;;5.44;65.64
82148;BME280;71718;50.480;12.110;2024-01-25T02:38:07;98361.78;;;5.48;67.51
82148;BME280;71718;50.480;12.110;2024-01-25T02:40:33;98360.19;;;5.47;65.21
82148;BME280;71718;50.480;12.110;2024-01-25T02:42:59;98355.03;;;5.47;68.59
82148;BME280;71718;50.480;12.110;2024-01-25T02:45:26;98351.16;;;5.43;69.30
82148;BME280;71718;50.480;12.110;2024-01-25T02:47:52;98345.38;;;5.41;66.08
82148;BME280;71718;50.480;12.110;2024-01-25T02:50:19;98338.88;;;5.37;69.85
82148;BME280;71718;50.480;12.110;2024-01-25T02:52:46;98335.63;;;5.27;70.57
82148;BME280;71718;50.480;12.110;2024-01-25T02:55:12;98326.88;;;5.12;71.45
82148;BME280;71718;50.480;12.110;2024-01-25T02:57:38;98332.34;;;5.09;68.94
82148;BME280;71718;50.480;12.110;2024-01-25T03:00:05;98335.03;;;4.99;71.68
82148;BME280;71718;50.480;12.110;2024-01-25T03:02:32;98345.16;;;5.00;68.32
82148;BME280;71718;50.480;12.110;2024-01-25T03:04:58;98348.88;;;4.98;71.18
82148;BME280;71718;50.480;12.110;2024-01-25T03:07:25;98354.34;;;5.03;63.30
82148;BME280;71718;50.480;12.110;2024-01-25T03:09:51;98345.38;;;5.07;62.78
82148;BME280;71718;50.480;12.110;2024-01-25T03:12:19;98349.56;;;5.08;62.61
82148;BME280;71718;50.480;12.110;2024-01-25T03:14:45;98355.88;;;5.14;67.37
82148;BME280;71718;50.480;12.110;2024-01-25T03:17:12;98365.69;;;5.18;69.60
82148;BME280;71718;50.480;12.110;2024-01-25T03:19:38;98361.84;;;5.22;68.28
82148;BME280;71718;50.480;12.110;2024-01-25T03:22:05;98365.38;;;5.21;70.36
82148;BME280;71718;50.480;12.110;2024-01-25T03:24:31;98358.59;;;5.12;68.90
82148;BME280;71718;50.480;12.110;2024-01-25T03:26:58;98355.53;;;5.17;71.04
82148;BME280;71718;50.480;12.110;2024-01-25T03:29:24;98357.31;;;5.16;69.49
82148;BME280;71718;50.480;12.110;2024-01-25T03:31:50;98357.94;;;5.10;70.54
82148;BME280;71718;50.480;12.110;2024-01-25T03:34:17;98370.13;;;5.00;67.51
82148;BME280;71718;50.480;12.110;2024-01-25T03:36:43;98354.34;;;4.95;68.39
82148;BME280;71718;50.480;12.110;2024-01-25T03:39:10;98351.22;;;4.91;65.06
82148;BME280;71718;50.480;12.110;2024-01-25T03:41:36;98354.63;;;4.92;69.25
82148;BME280;71718;50.480;12.110;2024-01-25T03:44:03;98355.75;;;4.89;70.23
82148;BME280;71718;50.480;12.110;2024-01-25T03:46:30;98363.28;;;4.91;69.23
82148;BME280;71718;50.480;12.110;2024-01-25T03:48:56;98358.97;;;4.91;66.64
82148;BME280;71718;50.480;12.110;2024-01-25T03:51:23;98352.75;;;4.76;69.34
82148;BME280;71718;50.480;12.110;2024-01-25T03:53:49;98357.69;;;4.70;71.21
82148;BME280;71718;50.480;12.110;2024-01-25T03:56:16;98365.06;;;4.64;70.39
82148;BME280;71718;50.480;12.110;2024-01-25T03:58:43;98365.69;;;4.58;67.51
82148;BME280;71718;50.480;12.110;2024-01-25T04:01:09;98371.19;;;4.63;67.60
82148;BME280;71718;50.480;12.110;2024-01-25T04:03:36;98387.22;;;4.57;68.22
82148;BME280;71718;50.480;12.110;2024-01-25T04:06:02;98388.16;;;4.56;69.02
82148;BME280;71718;50.480;12.110;2024-01-25T04:08:29;98390.59;;;4.58;72.03
82148;BME280;71718;50.480;12.110;2024-01-25T04:10:55;98387.56;;;4.62;72.17
82148;BME280;71718;50.480;12.110;2024-01-25T04:13:21;98388.06;;;4.66;71.76
82148;BME280;71718;50.480;12.110;2024-01-25T04:15:48;98388.41;;;4.71;68.94
82148;BME280;71718;50.480;12.110;2024-01-25T04:18:15;98394.72;;;4.77;67.83
82148;BME280;71718;50.480;12.110;2024-01-25T04:20:43;98409.44;;;4.84;70.35
82148;BME280;71718;50.480;12.110;2024-01-25T04:23:10;98409.47;;;4.92;69.90
82148;BME280;71718;50.480;12.110;2024-01-25T04:25:36;98411.72;;;4.95;71.06
82148;BME280;71718;50.480;12.110;2024-01-25T04:28:03;98405.50;;;4.98;64.57
82148;BME280;71718;50.480;12.110;2024-01-25T04:30:30;98401.19;;;5.06;68.25
82148;BME280;71718;50.480;12.110;2024-01-25T04:32:56;98399.88;;;5.02;68.70
82148;BME280;71718;50.480;12.110;2024-01-25T04:35:23;98395.19;;;4.98;69.21
82148;BME280;71718;50.480;12.110;2024-01-25T04:37:49;98401.75;;;4.92;69.96
82148;BME280;71718;50.480;12.110;2024-01-25T04:40:16;98397.63;;;4.99;66.06
82148;BME280;71718;50.480;12.110;2024-01-25T04:42:42;98420.16;;;5.05;60.41
82148;BME280;71718;50.480;12.110;2024-01-25T04:45:09;98426.94;;;5.06;67.90
82148;BME280;71718;50.480;12.110;2024-01-25T04:47:37;98432.91;;;5.07;68.00
82148;BME280;71718;50.480;12.110;2024-01-25T04:50:04;98450.63;;;5.10;62.43
82148;BME280;71718;50.480;12.110;2024-01-25T04:52:31;98450.47;;;5.12;64.75
82148;BME280;71718;50.480;12.110;2024-01-25T04:54:57;98448.56;;;5.14;67.68
82148;BME280;71718;50.480;12.110;2024-01-25T04:57:23;98453.97;;;5.11;67.14
82148;BME280;71718;50.480;12.110;2024-01-25T04:59:50;98458.78;;;5.05;68.23
82148;BME280;71718;50.480;12.110;2024-01-25T05:02:16;98460.84;;;5.02;64.73
82148;BME280;71718;50.480;12.110;2024-01-25T05:04:43;98467.66;;;5.11;60.69
82148;BME280;71718;50.480;12.110;2024-01-25T05:07:11;98480.25;;;5.14;58.67
82148;BME280;71718;50.480;12.110;2024-01-25T05:09:38;98480.91;;;5.16;62.66
82148;BME280;71718;50.480;12.110;2024-01-25T05:12:05;98475.75;;;5.16;62.75
82148;BME280;71718;50.480;12.110;2024-01-25T05:14:32;98497.50;;;5.22;58.83
82148;BME280;71718;50.480;12.110;2024-01-25T05:16:58;98494.59;;;5.17;63.02
82148;BME280;71718;50.480;12.110;2024-01-25T05:19:24;98502.63;;;5.14;61.00
82148;BME280;71718;50.480;12.110;2024-01-25T05:21:51;98510.00;;;5.09;63.25
82148;BME280;71718;50.480;12.110;2024-01-25T05:24:17;98494.41;;;5.10;62.24
82148;BME280;71718;50.480;12.110;2024-01-25T05:26:44;98494.19;;;5.03;66.80
82148;BME280;71718;50.480;12.110;2024-01-25T05:29:10;98502.44;;;4.89;62.63
82148;BME280;71718;50.480;12.110;2024-01-25T05:31:36;98517.25;;;4.95;62.48
82148;BME280;71718;50.480;12.110;2024-01-25T05:34:03;98523.69;;;4.91;65.51
82148;BME280;71718;50.480;12.110;2024-01-25T05:36:30;98519.41;;;4.82;62.83
82148;BME280;71718;50.480;12.110;2024-01-25T05:38:56;98534.94;;;4.73;59.87
82148;BME280;71718;50.480;12.110;2024-01-25T05:41:23;98525.94;;;4.59;64.72
82148;BME280;71718;50.480;12.110;2024-01-25T05:43:49;98518.41;;;4.57;60.22
82148;BME280;71718;50.480;12.110;2024-01-25T05:46:16;98536.16;;;4.51;65.13
82148;BME280;71718;50.480;12.110;2024-01-25T05:48:42;98530.06;;;4.52;65.98
82148;BME280;71718;50.480;12.110;2024-01-25T05:51:09;98538.00;;;4.41;63.29
82148;BME280;71718;50.480;12.110;2024-01-25T05:53:35;98539.88;;;4.39;63.48
82148;BME280;71718;50.480;12.110;2024-01-25T05:56:01;98555.03;;;4.42;64.76
82148;BME280;71718;50.480;12.110;2024-01-25T05:58:28;98564.53;;;4.41;63.40
82148;BME280;71718;50.480;12.110;2024-01-25T06:00:54;98564.53;;;4.41;63.32
82148;BME280;71718;50.480;12.110;2024-01-25T06:03:21;98562.31;;;4.46;64.07
82148;BME280;71718;50.480;12.110;2024-01-25T06:05:47;98554.75;;;4.45;58.75
82148;BME280;71718;50.480;12.110;2024-01-25T06:08:14;98547.78;;;4.55;58.80
82148;BME280;71718;50.480;12.110;2024-01-25T06:10:41;98557.06;;;4.66;63.08
82148;BME280;71718;50.480;12.110;2024-01-25T06:13:07;98564.44;;;4.78;61.80
82148;BME280;71718;50.480;12.110;2024-01-25T06:15:34;98566.78;;;4.89;58.70
82148;BME280;71718;50.480;12.110;2024-01-25T06:18:00;98572.22;;;5.04;63.61
82148;BME280;71718;50.480;12.110;2024-01-25T06:20:27;98577.16;;;5.15;62.62
82148;BME280;71718;50.480;12.110;2024-01-25T06:22:53;98587.94;;;5.19;60.95
82148;BME280;71718;50.480;12.110;2024-01-25T06:25:20;98589.25;;;5.23;61.41
82148;BME280;71718;50.480;12.110;2024-01-25T06:27:46;98576.34;;;5.15;65.04
82148;BME280;71718;50.480;12.110;2024-01-25T06:30:13;98579.13;;;5.03;59.89
82148;BME280;71718;50.480;12.110;2024-01-25T06:32:40;98581.97;;;5.00;63.14
82148;BME280;71718;50.480;12.110;2024-01-25T06:35:07;98587.97;;;4.83;62.78
82148;BME280;71718;50.480;12.110;2024-01-25T06:37:34;98587.59;;;4.78;60.52
82148;BME280;71718;50.480;12.110;2024-01-25T06:40:00;98588.22;;;4.80;64.17
82148;BME280;71718;50.480;12.110;2024-01-25T06:42:27;98589.72;;;4.83;63.37
82148;BME280;71718;50.480;12.110;2024-01-25T06:44:53;98584.81;;;4.89;62.02
82148;BME280;71718;50.480;12.110;2024-01-25T06:47:20;98603.31;;;4.93;64.96
82148;BME280;71718;50.480;12.110;2024-01-25T06:49:49;98605.53;;;4.88;63.82
82148;BME280;71718;50.480;12.110;2024-01-25T06:52:15;98594.88;;;4.83;59.76
82148;BME280;71718;50.480;12.110;2024-01-25T06:54:42;98612.56;;;4.68;65.28
82148;BME280;71718;50.480;12.110;2024-01-25T06:57:08;98614.47;;;4.66;57.54
82148;BME280;71718;50.480;12.110;2024-01-25T06:59:35;98617.84;;;4.67;61.84
82148;BME280;71718;50.480;12.110;2024-01-25T07:02:01;98613.88;;;4.72;61.94
82148;BME280;71718;50.480;12.110;2024-01-25T07:04:29;98613.47;;;4.77;59.40
82148;BME280;71718;50.480;12.110;2024-01-25T07:06:56;98608.81;;;4.80;62.48
82148;BME280;71718;50.480;12.110;2024-01-25T07:09:23;98610.50;;;4.72;63.75
82148;BME280;71718;50.480;12.110;2024-01-25T07:11:49;98613.66;;;4.66;61.48
82148;BME280;71718;50.480;12.110;2024-01-25T07:14:15;98597.28;;;4.67;62.94
82148;BME280;71718;50.480;12.110;2024-01-25T07:16:42;98617.91;;;4.75;62.84
82148;BME280;71718;50.480;12.110;2024-01-25T07:19:08;98610.22;;;4.75;61.78
82148;BME280;71718;50.480;12.110;2024-01-25T07:21:35;98621.53;;;4.82;62.25
82148;BME280;71718;50.480;12.110;2024-01-25T07:24:02;98630.47;;;4.87;62.85
82148;BME280;71718;50.480;12.110;2024-01-25T07:26:29;98633.72;;;4.89;61.04
82148;BME280;71718;50.480;12.110;2024-01-25T07:28:55;98646.97;;;4.85;62.33
82148;BME280;71718;50.480;12.110;2024-01-25T07:31:22;98637.13;;;4.80;59.81
82148;BME280;71718;50.480;12.110;2024-01-25T07:33:49;98640.81;;;4.78;64.88
82148;BME280;71718;50.480;12.110;2024-01-25T07:36:17;98647.22;;;4.74;60.12
82148;BME280;71718;50.480;12.110;2024-01-25T07:38:44;98650.59;;;4.74;63.52
82148;BME280;71718;50.480;12.110;2024-01-25T07:41:10;98652.19;;;4.75;58.25
82148;BME280;71718;50.480;12.110;2024-01-25T07:43:37;98670.44;;;4.82;61.10
82148;BME280;71718;50.480;12.110;2024-01-25T07:46:03;98663.47;;;4.74;59.01
82148;BME280;71718;50.480;12.110;2024-01-25T07:48:30;98654.88;;;4.83;59.65
82148;BME280;71718;50.480;12.110;2024-01-25T07:50:57;98657.66;;;4.90;58.49
82148;BME280;71718;50.480;12.110;2024-01-25T07:53:23;98648.72;;;4.94;60.65
82148;BME280;71718;50.480;12.110;2024-01-25T07:55:49;98651.94;;;4.96;60.78
82148;BME280;71718;50.480;12.110;2024-01-25T07:58:16;98659.66;;;4.96;59.02
82148;BME280;71718;50.480;12.110;2024-01-25T08:00:42;98668.19;;;4.96;57.82
82148;BME280;71718;50.480;12.110;2024-01-25T08:03:09;98672.75;;;5.02;60.61
82148;BME280;71718;50.480;12.110;2024-01-25T08:05:35;98671.38;;;5.08;58.47
82148;BME280;71718;50.480;12.110;2024-01-25T08:08:13;98667.97;;;5.07;63.67
82148;BME280;71718;50.480;12.110;2024-01-25T08:10:39;98671.75;;;5.13;64.93
82148;BME280;71718;50.480;12.110;2024-01-25T08:13:06;98674.00;;;5.16;61.15
82148;BME280;71718;50.480;12.110;2024-01-25T08:15:33;98664.91;;;5.22;63.99
82148;BME280;71718;50.480;12.110;2024-01-25T08:18:00;98668.97;;;5.24;60.81
82148;BME280;71718;50.480;12.110;2024-01-25T08:20:27;98664.44;;;5.26;58.35
82148;BME280;71718;50.480;12.110;2024-01-25T08:22:54;98661.59;;;5.29;61.31
82148;BME280;71718;50.480;12.110;2024-01-25T08:25:20;98665.50;;;5.33;60.44
82148;BME280;71718;50.480;12.110;2024-01-25T08:27:47;98664.19;;;5.29;60.12
82148;BME280;71718;50.480;12.110;2024-01-25T08:30:14;98678.94;;;5.27;60.05
82148;BME280;71718;50.480;12.110;2024-01-25T08:32:40;98699.50;;;5.19;59.89
82148;BME280;71718;50.480;12.110;2024-01-25T08:35:07;98689.25;;;5.10;61.83
82148;BME280;71718;50.480;12.110;2024-01-25T08:37:33;98695.97;;;5.20;59.47
82148;BME280;71718;50.480;12.110;2024-01-25T08:40:00;98689.69;;;5.23;62.58
82148;BME280;71718;50.480;12.110;2024-01-25T08:42:26;98699.72;;;5.26;62.58
82148;BME280;71718;50.480;12.110;2024-01-25T08:44:53;98692.19;;;5.32;63.30
82148;BME280;71718;50.480;12.110;2024-01-25T08:47:19;98701.28;;;5.36;60.82
82148;BME280;71718;50.480;12.110;2024-01-25T08:49:45;98681.69;;;5.43;62.38
82148;BME280;71718;50.480;12.110;2024-01-25T08:52:12;98670.66;;;5.33;60.06
82148;BME280;71718;50.480;12.110;2024-01-25T08:54:38;98683.66;;;5.14;64.15
82148;BME280;71718;50.480;12.110;2024-01-25T08:57:05;98682.78;;;5.23;65.04
82148;BME280;71718;50.480;12.110;2024-01-25T08:59:34;98681.75;;;5.16;62.82
82148;BME280;71718;50.480;12.110;2024-01-25T09:02:00;98698.75;;;5.27;59.79
82148;BME280;71718;50.480;12.110;2024-01-25T09:04:27;98700.09;;;5.31;60.38
82148;BME280;71718;50.480;12.110;2024-01-25T09:06:54;98695.53;;;5.25;65.24
82148;BME280;71718;50.480;12.110;2024-01-25T09:09:20;98693.47;;;5.28;59.08
82148;BME280;71718;50.480;12.110;2024-01-25T09:11:46;98711.41;;;5.20;62.54
82148;BME280;71718;50.480;12.110;2024-01-25T09:14:13;98703.75;;;5.28;63.35
82148;BME280;71718;50.480;12.110;2024-01-25T09:16:39;98711.47;;;5.28;60.53
82148;BME280;71718;50.480;12.110;2024-01-25T09:19:06;98715.81;;;5.28;58.99
82148;BME280;71718;50.480;12.110;2024-01-25T09:21:33;98722.25;;;5.41;57.72
82148;BME280;71718;50.480;12.110;2024-01-25T09:23:59;98714.88;;;5.64;59.44
82148;BME280;71718;50.480;12.110;2024-01-25T09:26:26;98716.19;;;5.86;59.49
82148;BME280;71718;50.480;12.110;2024-01-25T09:28:52;98706.47;;;5.98;59.68
82148;BME280;71718;50.480;12.110;2024-01-25T09:31:18;98705.06;;;5.85;58.28
82148;BME280;71718;50.480;12.110;2024-01-25T09:33:45;98711.53;;;5.89;55.83
82148;BME280;71718;50.480;12.110;2024-01-25T09:36:12;98712.84;;;5.93;55.86
82148;BME280;71718;50.480;12.110;2024-01-25T09:38:38;98708.91;;;5.81;56.26
82148;BME280;71718;50.480;12.110;2024-01-25T09:41:05;98715.25;;;5.52;55.10
82148;BME280;71718;50.480;12.110;2024-01-25T09:43:32;98715.16;;;5.43;58.64
82148;BME280;71718;50.480;12.110;2024-01-25T09:45:59;98722.16;;;5.33;62.19
82148;BME280;71718;50.480;12.110;2024-01-25T09:48:26;98719.78;;;5.22;61.67
82148;BME280;71718;50.480;12.110;2024-01-25T09:50:55;98727.13;;;5.17;59.09
82148;BME280;71718;50.480;12.110;2024-01-25T09:53:22;98731.94;;;5.30;58.67
82148;BME280;71718;50.480;12.110;2024-01-25T09:56:00;98732.38;;;5.43;59.37
82148;BME280;71718;50.480;12.110;2024-01-25T09:58:37;98726.88;;;5.38;61.01
82148;BME280;71718;50.480;12.110;2024-01-25T10:01:03;98725.84;;;5.48;57.61
82148;BME280;71718;50.480;12.110;2024-01-25T10:03:36;98726.53;;;5.51;63.30
82148;BME280;71718;50.480;12.110;2024-01-25T10:06:05;98730.88;;;5.50;62.11
82148;BME280;71718;50.480;12.110;2024-01-25T10:08:32;98729.31;;;5.39;56.50
82148;BME280;71718;50.480;12.110;2024-01-25T10:10:58;98731.50;;;5.70;58.83
82148;BME280;71718;50.480;12.110;2024-01-25T10:13:26;98734.53;;;5.83;60.90
82148;BME280;71718;50.480;12.110;2024-01-25T10:15:53;98720.75;;;5.74;61.02
82148;BME280;71718;50.480;12.110;2024-01-25T10:18:22;98718.19;;;5.74;62.37
82148;BME280;71718;50.480;12.110;2024-01-25T10:20:55;98727.19;;;5.70;58.50
82148;BME280;71718;50.480;12.110;2024-01-25T10:23:22;98723.56;;;5.81;57.42
82148;BME280;71718;50.480;12.110;2024-01-25T10:25:49;98727.81;;;5.90;57.45
82148;BME280;71718;50.480;12.110;2024-01-25T10:28:16;98721.84;;;5.89;58.04
82148;BME280;71718;50.480;12.110;2024-01-25T10:30:42;98722.97;;;5.87;56.95
82148;BME280;71718;50.480;12.110;2024-01-25T10:33:09;98723.69;;;5.97;56.45
82148;BME280;71718;50.480;12.110;2024-01-25T10:35:36;98719.94;;;5.91;53.66
82148;BME280;71718;50.480;12.110;2024-01-25T10:38:04;98733.47;;;5.93;55.42
82148;BME280;71718;50.480;12.110;2024-01-25T10:40:30;98725.47;;;5.79;57.10
82148;BME280;71718;50.480;12.110;2024-01-25T10:42:57;98722.75;;;5.80;58.07
82148;BME280;71718;50.480;12.110;2024-01-25T10:45:24;98718.00;;;5.93;56.08
82148;BME280;71718;50.480;12.110;2024-01-25T10:47:51;98721.63;;;6.18;53.95
82148;BME280;71718;50.480;12.110;2024-01-25T10:50:17;98720.44;;;6.39;54.28
82148;BME280;71718;50.480;12.110;2024-01-25T10:52:46;98717.91;;;6.21;57.92
82148;BME280;71718;50.480;12.110;2024-01-25T10:55:13;98710.75;;;6.32;59.98
82148;BME280;71718;50.480;12.110;2024-01-25T10:57:45;98719.88;;;6.27;54.30
82148;BME280;71718;50.480;12.110;2024-01-25T11:00:13;98721.66;;;6.26;59.35
82148;BME280;71718;50.480;12.110;2024-01-25T11:02:41;98717.91;;;6.21;59.28
82148;BME280;71718;50.480;12.110;2024-01-25T11:05:10;98718.69;;;6.39;53.83
82148;BME280;71718;50.480;12.110;2024-01-25T11:07:42;98711.13;;;6.46;57.42
82148;BME280;71718;50.480;12.110;2024-01-25T11:10:27;98718.31;;;6.60;53.72
82148;BME280;71718;50.480;12.110;2024-01-25T11:12:59;98705.81;;;6.47;59.19
82148;BME280;71718;50.480;12.110;2024-01-25T11:15:36;98714.91;;;6.59;55.73
82148;BME280;71718;50.480;12.110;2024-01-25T11:18:04;98715.91;;;6.66;56.18
82148;BME280;71718;50.480;12.110;2024-01-25T11:20:31;98729.28;;;6.62;54.96
82148;BME280;71718;50.480;12.110;2024-01-25T11:22:59;98721.00;;;6.50;54.61
82148;BME280;71718;50.480;12.110;2024-01-25T11:25:29;98722.66;;;6.59;53.11
82148;BME280;71718;50.480;12.110;2024-01-25T11:27:57;98722.31;;;6.54;53.07
82148;BME280;71718;50.480;12.110;2024-01-25T11:30:25;98728.09;;;6.48;53.19
82148;BME280;71718;50.480;12.110;2024-01-25T11:32:52;98723.03;;;6.39;53.30
82148;BME280;71718;50.480;12.110;2024-01-25T11:35:19;98721.06;;;6.32;56.11
82148;BME280;71718;50.480;12.110;2024-01-25T11:37:50;98721.38;;;6.29;54.29
82148;BME280;71718;50.480;12.110;2024-01-25T11:40:16;98720.56;;;6.29;54.24
82148;BME280;71718;50.480;12.110;2024-01-25T11:42:44;98727.31;;;6.30;58.49
82148;BME280;71718;50.480;12.110;2024-01-25T11:45:12;98728.38;;;6.19;56.66
82148;BME280;71718;50.480;12.110;2024-01-25T11:47:39;98733.59;;;6.27;57.20
82148;BME280;71718;50.480;12.110;2024-01-25T11:50:07;98728.94;;;6.31;56.57
82148;BME280;71718;50.480;12.110;2024-01-25T11:52:35;98727.97;;;6.32;56.67
82148;BME280;71718;50.480;12.110;2024-01-25T11:55:06;98724.47;;;6.41;56.39
82148;BME280;71718;50.480;12.110;2024-01-25T11:57:39;98723.63;;;6.58;53.96
82148;BME280;71718;50.480;12.110;2024-01-25T12:00:07;98727.59;;;6.79;57.78
82148;BME280;71718;50.480;12.110;2024-01-25T12:02:35;98730.16;;;6.79;54.66
82148;BME280;71718;50.480;12.110;2024-01-25T12:05:02;98720.19;;;6.84;53.11
82148;BME280;71718;50.480;12.110;2024-01-25T12:07:30;98724.06;;;6.88;52.45
82148;BME280;71718;50.480;12.110;2024-01-25T12:10:02;98712.31;;;6.93;51.29
82148;BME280;71718;50.480;12.110;2024-01-25T12:12:29;98712.97;;;6.95;51.55
82148;BME280;71718;50.480;12.110;2024-01-25T12:15:00;98708.13;;;7.00;54.86
82148;BME280;71718;50.480;12.110;2024-01-25T12:17:27;98704.41;;;6.87;55.65
82148;BME280;71718;50.480;12.110;2024-01-25T12:19:58;98687.84;;;6.71;57.87
82148;BME280;71718;50.480;12.110;2024-01-25T12:22:29;98695.44;;;6.65;54.03
82148;BME280;71718;50.480;12.110;2024-01-25T12:24:57;98690.44;;;6.71;54.57
82148;BME280;71718;50.480;12.110;2024-01-25T12:27:26;98695.44;;;6.73;53.02
82148;BME280;71718;50.480;12.110;2024-01-25T12:29:53;98702.09;;;6.75;57.96
82148;BME280;71718;50.480;12.110;2024-01-25T12:32:20;98703.78;;;6.59;54.21
82148;BME280;71718;50.480;12.110;2024-01-25T12:34:53;98703.91;;;6.49;55.26
82148;BME280;71718;50.480;12.110;2024-01-25T12:37:20;98703.28;;;6.55;52.27
82148;BME280;71718;50.480;12.110;2024-01-25T12:39:48;98700.38;;;6.58;55.90
82148;BME280;71718;50.480;12.110;2024-01-25T12:42:14;98709.19;;;6.40;54.36
82148;BME280;71718;50.480;12.110;2024-01-25T12:44:42;98714.38;;;6.48;51.64
82148;BME280;71718;50.480;12.110;2024-01-25T12:47:09;98708.38;;;6.39;55.95
82148;BME280;71718;50.480;12.110;2024-01-25T12:49:35;98712.81;;;6.29;55.61
82148;BME280;71718;50.480;12.110;2024-01-25T12:52:02;98718.16;;;6.36;55.91
82148;BME280;71718;50.480;12.110;2024-01-25T12:54:28;98720.56;;;6.29;54.65
82148;BME280;71718;50.480;12.110;2024-01-25T12:56:55;98724.84;;;6.20;55.97
82148;BME280;71718;50.480;12.110;2024-01-25T12:59:23;98703.91;;;6.23;57.62